Time;durP1;ratioP1;P1;durP2;ratioP2;P2;SDS_P1;SDS_P2;PMS_P1;PMS_P2;Temp;Humidity;BMP_temperature;BMP_pressure;BME280_temperature;BME280_humidity;BME280_pressure;Samples;Min_cycle;Max_cycle;Signal;HPM_P1;HPM_P2
2022/11/28 00:02:19;;;;;;;3.67;2.50;;;10.10;86.90;;;;;;5001584;28;20665;-85
2022/11/28 00:04:45;;;;;;;4.13;2.37;;;10.00;88.50;;;;;;5018589;28;20222;-84
2022/11/28 00:07:11;;;;;;;3.13;2.20;;;10.00;90.00;;;;;;5000961;28;20657;-84
2022/11/28 00:09:36;;;;;;;4.47;2.83;;;9.90;90.70;;;;;;5017736;28;20178;-86
2022/11/28 00:12:02;;;;;;;4.50;2.60;;;9.90;91.10;;;;;;5018258;28;20262;-87
2022/11/28 00:14:28;;;;;;;3.33;2.30;;;10.00;92.20;;;;;;5001235;28;20186;-86
2022/11/28 00:16:58;;;;;;;4.17;2.60;;;9.90;92.90;;;;;;5017784;28;20194;-85
2022/11/28 00:19:24;;;;;;;4.97;2.90;;;9.90;93.20;;;;;;5018579;28;20170;-85
2022/11/28 00:21:49;;;;;;;4.97;3.00;;;9.90;93.60;;;;;;5018104;28;20178;-84
2022/11/28 00:24:15;;;;;;;4.90;2.83;;;10.00;94.60;;;;;;5000715;28;20234;-85
2022/11/28 00:26:41;;;;;;;4.53;2.60;;;9.80;94.40;;;;;;5017549;28;20194;-85
2022/11/28 00:29:08;;;;;;;5.83;2.80;;;9.80;95.00;;;;;;4999615;28;20178;-86
2022/11/28 00:31:41;;;;;;;4.57;2.83;;;9.80;95.30;;;;;;5017676;28;20198;-86
2022/11/28 00:34:10;;;;;;;3.90;2.77;;;9.80;95.50;;;;;;5017843;28;20172;-83
2022/11/28 00:36:36;;;;;;;4.83;3.00;;;9.80;96.30;;;;;;5000484;28;20213;-85
2022/11/28 00:39:02;;;;;;;3.93;2.80;;;9.90;96.10;;;;;;5017430;28;20166;-85
2022/11/28 00:41:30;;;;;;;4.60;2.47;;;9.90;96.60;;;;;;5000911;28;20175;-85
2022/11/28 00:43:56;;;;;;;3.77;3.00;;;9.90;96.70;;;;;;5001979;28;20670;-85
2022/11/28 00:46:22;;;;;;;4.17;3.10;;;9.90;97.00;;;;;;5018051;28;20163;-84
2022/11/28 00:48:49;;;;;;;5.30;2.90;;;9.90;98.30;;;;;;5018624;28;20229;-83
2022/11/28 00:51:21;;;;;;;3.67;2.63;;;9.90;99.00;;;;;;5018471;28;20181;-85
2022/11/28 00:54:07;;;;;;;4.60;2.77;;;9.80;99.80;;;;;;5024727;28;20174;-85
2022/11/28 00:56:36;;;;;;;4.37;2.93;;;9.80;99.90;;;;;;5022829;28;20178;-85
2022/11/28 00:59:06;;;;;;;4.80;2.70;;;9.80;99.90;;;;;;5001647;28;20213;-84
2022/11/28 01:01:38;;;;;;;6.83;3.13;;;9.60;99.90;;;;;;5000868;28;20174;-86
2022/11/28 01:04:07;;;;;;;6.80;3.40;;;9.70;99.90;;;;;;5019763;28;20206;-85
2022/11/28 01:06:39;;;;;;;4.37;3.40;;;9.70;99.90;;;;;;5021017;28;20162;-85
2022/11/28 01:09:10;;;;;;;6.23;3.20;;;9.60;99.90;;;;;;5002154;28;20240;-85
2022/11/28 01:11:40;;;;;;;4.23;3.00;;;9.60;99.90;;;;;;5020012;28;20158;-84
2022/11/28 01:14:07;;;;;;;5.77;3.20;;;9.50;99.90;;;;;;5018345;28;20213;-84
2022/11/28 01:16:34;;;;;;;5.47;2.87;;;9.50;99.90;;;;;;5018527;28;20174;-86
2022/11/28 01:19:00;;;;;;;6.07;3.40;;;9.50;99.90;;;;;;4999892;28;20174;-84
2022/11/28 01:21:27;;;;;;;4.90;3.53;;;9.50;99.90;;;;;;5017631;28;20232;-85
2022/11/28 01:23:54;;;;;;;4.50;3.37;;;9.50;99.90;;;;;;5017654;28;20201;-84
2022/11/28 01:26:24;;;;;;;4.30;3.07;;;9.70;99.90;;;;;;5018549;28;20198;-84
2022/11/28 01:28:52;;;;;;;4.90;3.30;;;9.50;99.90;;;;;;4984832;28;20202;-84
2022/11/28 01:31:21;;;;;;;7.20;3.63;;;9.50;99.90;;;;;;5001998;28;20210;-85
2022/11/28 01:33:49;;;;;;;5.23;3.67;;;9.40;99.90;;;;;;5028287;28;20233;-85
2022/11/28 01:36:17;;;;;;;5.43;3.60;;;9.40;99.90;;;;;;5017553;28;20181;-84
2022/11/28 01:38:43;;;;;;;6.17;3.47;;;9.40;99.90;;;;;;5038522;28;20209;-81
2022/11/28 01:41:09;;;;;;;5.30;3.80;;;9.30;99.90;;;;;;5038096;28;20165;-83
2022/11/28 01:44:00;;;;;;;5.67;3.70;;;9.40;99.90;;;;;;5019928;28;20190;-83
2022/11/28 01:46:59;;;;;;;4.93;3.53;;;9.30;99.90;;;;;;5032647;28;20234;-85
2022/11/28 01:49:36;;;;;;;4.57;3.57;;;9.30;99.90;;;;;;5017991;28;20262;-85
2022/11/28 01:52:10;;;;;;;5.30;4.00;;;9.20;99.90;;;;;;5016769;28;20161;-85
2022/11/28 01:54:42;;;;;;;5.87;3.67;;;9.20;99.90;;;;;;5016073;28;20208;-84
2022/11/28 01:57:12;;;;;;;6.00;3.97;;;9.20;99.90;;;;;;5015606;28;20158;-85
2022/11/28 01:59:44;;;;;;;5.07;3.67;;;9.20;99.90;;;;;;4981929;28;20182;-86
2022/11/28 02:02:18;;;;;;;5.73;3.87;;;9.30;99.90;;;;;;5016408;28;20159;-86
2022/11/28 02:04:45;;;;;;;5.80;3.90;;;9.20;99.90;;;;;;5017009;28;20197;-85
2022/11/28 02:07:11;;;;;;;5.27;3.87;;;9.10;99.90;;;;;;5017074;28;20158;-87
2022/11/28 02:09:38;;;;;;;5.87;4.30;;;9.10;99.90;;;;;;5016985;28;20182;-84
2022/11/28 02:12:53;;;;;;;5.03;3.80;;;9.10;99.90;;;;;;5000177;28;20312;-85
2022/11/28 02:15:31;;;;;;;4.87;4.10;;;9.10;99.90;;;;;;4994231;28;20218;-84
2022/11/28 02:18:18;;;;;;;7.17;4.27;;;9.20;99.90;;;;;;5016671;28;20702;-85
2022/11/28 02:21:23;;;;;;;6.47;4.43;;;9.10;99.90;;;;;;5015756;28;20177;-85
2022/11/28 02:24:33;;;;;;;5.60;4.70;;;9.10;99.90;;;;;;4988061;28;20674;-84
2022/11/28 02:27:19;;;;;;;5.60;4.07;;;9.10;99.90;;;;;;4998567;28;20281;-86
2022/11/28 02:30:02;;;;;;;5.40;4.20;;;9.10;99.90;;;;;;4966229;28;20186;-84
2022/11/28 02:32:34;;;;;;;5.70;3.90;;;9.10;99.90;;;;;;5016726;28;20262;-85
2022/11/28 02:35:20;;;;;;;5.50;4.10;;;9.10;99.90;;;;;;5019127;28;20171;-85
2022/11/28 02:37:55;;;;;;;7.13;4.23;;;9.10;99.90;;;;;;5020279;28;20170;-85
2022/11/28 02:40:27;;;;;;;5.73;4.07;;;9.00;99.90;;;;;;5020566;28;20178;-84
2022/11/28 02:43:13;;;;;;;4.30;3.90;;;9.10;99.90;;;;;;5020076;28;20217;-85
2022/11/28 02:45:53;;;;;;;6.33;4.50;;;9.10;99.90;;;;;;5037335;28;20194;-82
2022/11/28 02:48:54;;;;;;;6.03;4.50;;;9.10;99.90;;;;;;5040760;28;20158;-83
2022/11/28 02:51:34;;;;;;;5.80;4.17;;;9.10;99.90;;;;;;5002667;28;20216;-87
2022/11/28 02:54:02;;;;;;;6.97;4.93;;;9.10;99.90;;;;;;5028998;28;20229;-85
2022/11/28 02:56:28;;;;;;;6.37;4.27;;;9.20;99.90;;;;;;5014210;28;20175;-86
2022/11/28 02:58:55;;;;;;;5.17;3.93;;;9.10;99.90;;;;;;5024633;28;20277;-85
2022/11/28 03:01:29;;;;;;;5.07;4.17;;;9.10;99.90;;;;;;5019807;28;20154;-84
2022/11/28 03:04:11;;;;;;;6.10;4.20;;;9.10;99.90;;;;;;5020891;28;20185;-84
2022/11/28 03:07:08;;;;;;;5.70;4.40;;;9.10;99.90;;;;;;5022907;28;20178;-84
2022/11/28 03:09:46;;;;;;;6.37;4.40;;;9.10;99.90;;;;;;5024730;28;20178;-83
2022/11/28 03:12:22;;;;;;;5.43;4.43;;;9.10;99.90;;;;;;5022243;28;20178;-86
2022/11/28 03:14:56;;;;;;;5.30;4.57;;;9.10;99.90;;;;;;5023605;28;20656;-84
2022/11/28 03:17:46;;;;;;;4.87;4.37;;;9.00;99.90;;;;;;5008840;28;20170;-86
2022/11/28 03:20:40;;;;;;;5.17;4.57;;;9.00;99.90;;;;;;5021390;28;20181;-84
2022/11/28 03:23:31;;;;;;;5.73;4.53;;;9.00;99.90;;;;;;5040258;28;20197;-86
2022/11/28 03:26:02;;;;;;;6.13;4.47;;;9.10;99.90;;;;;;5017897;28;20205;-87
2022/11/28 03:28:37;;;;;;;4.30;3.90;;;9.10;99.90;;;;;;5031662;28;20167;-86
2022/11/28 03:31:09;;;;;;;6.77;4.17;;;9.10;99.90;;;;;;5007984;28;20190;-84
2022/11/28 03:33:37;;;;;;;5.07;4.40;;;9.20;99.90;;;;;;5002605;28;20178;-86
2022/11/28 03:36:20;;;;;;;4.70;4.10;;;9.20;99.90;;;;;;5005658;28;20238;-86
2022/11/28 03:38:53;;;;;;;5.30;4.13;;;9.10;99.90;;;;;;5023826;28;20249;-84
2022/11/28 03:41:40;;;;;;;5.90;4.23;;;9.20;99.90;;;;;;5017380;28;20183;-80
2022/11/28 03:44:10;;;;;;;4.23;3.77;;;9.20;99.90;;;;;;4998108;28;20206;-80
2022/11/28 03:46:45;;;;;;;5.53;4.13;;;9.20;99.90;;;;;;4997173;28;20646;-77
2022/11/28 03:49:16;;;;;;;5.43;4.37;;;9.20;99.90;;;;;;5016835;28;20158;-79
2022/11/28 03:51:48;;;;;;;4.83;3.93;;;9.20;99.90;;;;;;5016191;28;20201;-78
2022/11/28 03:54:20;;;;;;;6.03;4.17;;;9.20;99.90;;;;;;5015604;28;20232;-80
2022/11/28 03:56:56;;;;;;;4.53;3.63;;;9.20;99.90;;;;;;5015639;28;20174;-83
2022/11/28 03:59:29;;;;;;;4.80;3.97;;;9.20;99.90;;;;;;5015609;28;20535;-79
2022/11/28 04:02:04;;;;;;;4.70;3.83;;;9.20;99.90;;;;;;5014940;28;20166;-79
2022/11/28 04:04:53;;;;;;;5.20;4.00;;;9.30;99.90;;;;;;5014740;28;20247;-79
2022/11/28 04:07:25;;;;;;;4.80;4.30;;;9.40;99.90;;;;;;5014850;28;20174;-79
2022/11/28 04:10:01;;;;;;;5.07;3.90;;;9.40;99.90;;;;;;5015514;28;20523;-85
2022/11/28 04:12:58;;;;;;;5.53;4.53;;;9.30;99.90;;;;;;5015803;28;20178;-86
2022/11/28 04:15:46;;;;;;;4.83;3.93;;;9.20;99.90;;;;;;5026828;28;20178;-81
2022/11/28 04:18:30;;;;;;;6.23;4.50;;;9.20;99.90;;;;;;5036887;28;20173;-85
2022/11/28 04:21:36;;;;;;;4.40;4.00;;;9.20;99.90;;;;;;5037678;28;20162;-82
2022/11/28 04:24:07;;;;;;;4.83;4.13;;;9.20;99.90;;;;;;5018037;28;20193;-82
2022/11/28 04:26:36;;;;;;;5.10;4.00;;;9.20;99.90;;;;;;5038718;28;20178;-82
2022/11/28 04:29:08;;;;;;;5.17;4.67;;;9.10;99.90;;;;;;5039213;28;20189;-83
2022/11/28 04:31:36;;;;;;;5.43;4.27;;;9.20;99.90;;;;;;5022259;28;20254;-85
2022/11/28 04:34:08;;;;;;;5.33;4.57;;;9.20;99.90;;;;;;5036801;28;20193;-85
2022/11/28 04:36:37;;;;;;;4.90;4.23;;;9.30;99.90;;;;;;5029240;28;20167;-87
2022/11/28 04:39:08;;;;;;;5.30;4.43;;;9.20;99.90;;;;;;5030935;28;20163;-84
2022/11/28 04:41:39;;;;;;;5.20;4.50;;;9.20;99.90;;;;;;5021713;28;20166;-84
2022/11/28 04:44:27;;;;;;;5.93;5.30;;;9.20;99.90;;;;;;5039503;28;20214;-81
2022/11/28 04:46:56;;;;;;;5.83;5.23;;;9.20;99.90;;;;;;5039174;28;20150;-85
2022/11/28 04:49:30;;;;;;;6.60;5.70;;;9.20;99.90;;;;;;5035949;28;20167;-85
2022/11/28 04:55:45;;;;;;;6.40;5.53;;;9.30;99.90;;;;;;5020540;28;20525;-86
2022/11/28 04:58:14;;;;;;;7.20;5.23;;;9.40;99.90;;;;;;4998825;28;20167;-85
2022/11/28 05:00:40;;;;;;;6.13;5.53;;;9.30;99.90;;;;;;5000219;28;20178;-85
2022/11/28 05:03:08;;;;;;;6.70;6.00;;;9.30;99.90;;;;;;5016511;28;20170;-85
2022/11/28 05:05:45;;;;;;;7.23;6.40;;;9.50;99.90;;;;;;5022868;28;20221;-85
2022/11/28 05:08:12;;;;;;;7.50;6.20;;;9.40;99.90;;;;;;5036256;28;20162;-84
2022/11/28 05:10:39;;;;;;;6.53;5.87;;;9.50;99.90;;;;;;5017988;28;20174;-85
2022/11/28 05:13:04;;;;;;;6.97;6.20;;;9.40;99.90;;;;;;5022867;28;20596;-84
2022/11/28 05:15:30;;;;;;;6.50;5.47;;;9.50;99.90;;;;;;5024236;28;20170;-84
2022/11/28 05:17:56;;;;;;;6.80;6.10;;;9.40;99.90;;;;;;5028383;28;20178;-85
2022/11/28 05:20:22;;;;;;;7.00;6.17;;;9.50;99.90;;;;;;5019928;28;20185;-83
2022/11/28 05:22:50;;;;;;;8.53;6.60;;;9.40;99.90;;;;;;5023421;28;20174;-85
2022/11/28 05:25:16;;;;;;;7.47;6.77;;;9.50;99.90;;;;;;5018598;28;20733;-84
2022/11/28 05:27:41;;;;;;;7.13;6.43;;;9.40;99.90;;;;;;5015773;28;20209;-86
2022/11/28 05:30:08;;;;;;;7.40;6.70;;;9.40;99.90;;;;;;5014915;28;20220;-84
2022/11/28 05:32:35;;;;;;;7.47;6.77;;;9.50;99.90;;;;;;5015367;28;20177;-86
2022/11/28 05:35:01;;;;;;;7.30;6.60;;;9.50;99.90;;;;;;5015771;28;20534;-86
2022/11/28 05:37:26;;;;;;;8.07;7.10;;;9.40;99.90;;;;;;4999125;28;20630;-85
2022/11/28 05:39:52;;;;;;;7.77;6.97;;;9.50;99.90;;;;;;5016601;28;20671;-86
2022/11/28 05:42:19;;;;;;;8.40;7.40;;;9.60;99.90;;;;;;4999275;28;20577;-85
2022/11/28 05:44:45;;;;;;;9.77;7.83;;;9.50;99.90;;;;;;5018913;28;20236;-85
2022/11/28 05:47:11;;;;;;;8.43;6.90;;;9.50;99.90;;;;;;5025880;28;20158;-84
2022/11/28 05:49:37;;;;;;;8.73;7.83;;;9.50;99.90;;;;;;5032966;28;20191;-85
2022/11/28 05:52:03;;;;;;;10.47;7.67;;;9.60;99.90;;;;;;5010519;28;20193;-84
2022/11/28 05:54:29;;;;;;;9.87;7.77;;;9.60;99.90;;;;;;5030266;28;20174;-85
2022/11/28 05:56:55;;;;;;;9.10;8.20;;;9.50;99.90;;;;;;5027170;28;20166;-84
2022/11/28 05:59:20;;;;;;;9.37;8.40;;;9.50;99.90;;;;;;5020766;28;20174;-85
2022/11/28 06:01:47;;;;;;;9.20;8.30;;;9.60;99.90;;;;;;5017672;28;20615;-85
2022/11/28 06:04:12;;;;;;;9.63;8.63;;;9.60;99.90;;;;;;5016689;28;20204;-85
2022/11/28 06:06:38;;;;;;;9.50;8.60;;;9.70;99.90;;;;;;5022592;28;20166;-78
2022/11/28 06:09:06;;;;;;;10.43;9.43;;;9.80;99.90;;;;;;5035407;28;20162;-78
2022/11/28 06:11:33;;;;;;;10.30;9.20;;;9.80;99.90;;;;;;5036577;28;20185;-78
2022/11/28 06:14:13;;;;;;;10.43;9.43;;;9.80;99.90;;;;;;5026721;28;20166;-80
2022/11/28 06:16:40;;;;;;;11.13;10.03;;;9.70;99.90;;;;;;5023692;28;20639;-83
2022/11/28 06:19:16;;;;;;;11.77;10.50;;;9.90;99.90;;;;;;5001660;28;20174;-80
2022/11/28 06:21:42;;;;;;;10.47;9.47;;;9.80;99.90;;;;;;5017612;28;20182;-81
2022/11/28 06:24:09;;;;;;;10.53;9.53;;;9.90;99.90;;;;;;5017696;28;20210;-83
2022/11/28 06:26:41;;;;;;;11.23;10.13;;;9.80;99.90;;;;;;5017315;28;20190;-78
2022/11/28 06:29:06;;;;;;;13.40;10.37;;;9.80;99.90;;;;;;5017337;28;20181;-81
2022/11/28 06:31:33;;;;;;;11.67;10.57;;;9.60;99.90;;;;;;4999836;28;20202;-78
2022/11/28 06:34:00;;;;;;;11.73;10.60;;;9.70;99.90;;;;;;4999605;28;20213;-79
2022/11/28 06:36:26;;;;;;;11.70;10.53;;;9.60;99.90;;;;;;4982927;28;20188;-85
2022/11/28 06:38:52;;;;;;;11.60;10.43;;;9.60;99.90;;;;;;5017512;28;20254;-86
2022/11/28 06:41:19;;;;;;;10.67;9.67;;;9.70;99.90;;;;;;5019300;28;20221;-81
2022/11/28 06:43:46;;;;;;;11.07;9.97;;;9.60;99.90;;;;;;5017833;28;20729;-81
2022/11/28 06:46:13;;;;;;;11.47;10.27;;;9.70;99.90;;;;;;4999476;28;20265;-81
2022/11/28 06:48:40;;;;;;;11.33;10.23;;;9.60;99.90;;;;;;4999220;28;20225;-79
2022/11/28 06:51:06;;;;;;;11.33;10.00;;;9.70;99.90;;;;;;5017135;28;20208;-78
2022/11/28 06:53:33;;;;;;;11.10;9.97;;;9.60;99.90;;;;;;5016562;28;20170;-81
2022/11/28 06:56:08;;;;;;;9.90;8.90;;;9.60;99.90;;;;;;4997445;28;20244;-83
2022/11/28 06:58:35;;;;;;;10.37;9.27;;;9.60;99.90;;;;;;5016299;28;20253;-81
2022/11/28 07:01:19;;;;;;;8.93;8.03;;;9.70;99.90;;;;;;4997868;28;20599;-80
2022/11/28 07:03:47;;;;;;;9.30;8.30;;;9.70;99.90;;;;;;5016231;28;20209;-84
2022/11/28 07:06:16;;;;;;;8.27;7.47;;;9.60;99.90;;;;;;5016788;28;20186;-83
2022/11/28 07:08:42;;;;;;;10.60;9.43;;;9.60;99.90;;;;;;5000552;28;20175;-82
2022/11/28 07:11:10;;;;;;;8.87;7.97;;;9.60;99.90;;;;;;4998798;28;20689;-84
2022/11/28 07:13:36;;;;;;;9.17;8.20;;;9.60;99.90;;;;;;5015848;28;20185;-85
2022/11/28 07:16:03;;;;;;;9.60;8.13;;;9.60;99.90;;;;;;5015489;28;20178;-86
2022/11/28 07:18:28;;;;;;;8.27;7.37;;;9.60;99.90;;;;;;5021507;28;20166;-83
2022/11/28 07:20:54;;;;;;;8.60;7.70;;;9.60;99.90;;;;;;5025852;28;20202;-83
2022/11/28 07:23:20;;;;;;;8.93;8.03;;;9.60;99.90;;;;;;5020572;28;20170;-88
2022/11/28 07:25:45;;;;;;;8.60;7.73;;;9.60;99.90;;;;;;5016152;28;20245;-87
2022/11/28 07:28:11;;;;;;;8.23;7.43;;;9.80;99.90;;;;;;5016541;28;20666;-87
2022/11/28 07:30:37;;;;;;;8.90;8.00;;;9.70;99.90;;;;;;5015787;28;20651;-84
2022/11/28 07:33:02;;;;;;;9.17;7.87;;;9.70;99.90;;;;;;4998927;28;20170;-83
2022/11/28 07:35:28;;;;;;;10.33;9.20;;;9.90;99.90;;;;;;5017167;28;20574;-84
2022/11/28 07:37:54;;;;;;;10.47;9.17;;;9.70;99.90;;;;;;5017835;28;20178;-82
2022/11/28 07:40:21;;;;;;;10.67;9.57;;;9.70;99.90;;;;;;5019954;28;20257;-83
2022/11/28 07:42:47;;;;;;;10.23;9.13;;;9.70;99.90;;;;;;5001173;28;20554;-86
2022/11/28 07:45:14;;;;;;;10.83;9.67;;;9.70;99.90;;;;;;5002088;28;20690;-85
2022/11/28 07:47:40;;;;;;;10.83;9.33;;;9.70;99.90;;;;;;5023975;28;20210;-84
2022/11/28 07:50:06;;;;;;;12.73;10.50;;;9.70;99.90;;;;;;5039031;28;20166;-83
2022/11/28 07:52:33;;;;;;;12.03;10.83;;;9.90;99.90;;;;;;5038969;28;20192;-83
2022/11/28 07:54:58;;;;;;;12.97;11.67;;;9.90;99.90;;;;;;5039340;28;20162;-84
2022/11/28 07:57:55;;;;;;;12.47;10.83;;;9.80;99.90;;;;;;5036658;28;20209;-83
2022/11/28 08:00:21;;;;;;;14.10;12.60;;;10.00;99.90;;;;;;5029329;28;20623;-85
2022/11/28 08:02:47;;;;;;;14.10;12.23;;;10.00;99.90;;;;;;5001678;28;20269;-86
2022/11/28 08:05:15;;;;;;;15.30;13.03;;;10.00;99.90;;;;;;5004360;28;20575;-85
2022/11/28 08:07:40;;;;;;;13.77;12.37;;;9.90;99.90;;;;;;5021743;28;20181;-85
2022/11/28 08:10:08;;;;;;;15.93;12.33;;;9.90;99.90;;;;;;5023459;28;20595;-83
2022/11/28 08:12:33;;;;;;;14.03;12.07;;;9.90;99.90;;;;;;5022367;28;20679;-84
2022/11/28 08:14:59;;;;;;;13.57;12.10;;;9.80;99.90;;;;;;5003695;28;20170;-84
2022/11/28 08:17:24;;;;;;;13.83;11.67;;;9.90;99.90;;;;;;5020921;28;20170;-85
2022/11/28 08:19:50;;;;;;;13.10;11.40;;;9.90;99.90;;;;;;5022795;28;20212;-83
2022/11/28 08:22:16;;;;;;;14.93;11.37;;;9.90;99.90;;;;;;4990540;28;20203;-83
2022/11/28 08:24:41;;;;;;;12.97;11.43;;;10.00;99.90;;;;;;5022477;28;20260;-85
2022/11/28 08:27:07;;;;;;;12.70;11.27;;;10.10;99.90;;;;;;5023343;28;20274;-85
2022/11/28 08:29:33;;;;;;;13.23;11.93;;;9.90;99.90;;;;;;5021494;28;20198;-86
2022/11/28 08:31:59;;;;;;;14.13;12.50;;;10.10;99.90;;;;;;5005763;28;20304;-87
2022/11/28 08:34:25;;;;;;;16.60;12.43;;;10.20;99.90;;;;;;5015346;28;20190;-86
2022/11/28 08:36:51;;;;;;;14.67;12.17;;;10.20;99.90;;;;;;5014106;28;20607;-87
2022/11/28 08:39:16;;;;;;;15.40;12.30;;;10.20;99.90;;;;;;5005426;28;20214;-79
2022/11/28 08:41:42;;;;;;;14.57;12.37;;;10.10;99.90;;;;;;5026212;28;20166;-82
2022/11/28 08:44:08;;;;;;;16.03;13.30;;;10.20;99.90;;;;;;5022985;28;20276;-80
2022/11/28 08:46:34;;;;;;;14.40;12.87;;;10.30;99.90;;;;;;5019123;28;20650;-82
2022/11/28 08:49:02;;;;;;;13.87;12.40;;;10.30;99.90;;;;;;5018382;28;20158;-79
2022/11/28 08:51:30;;;;;;;16.03;13.03;;;10.20;99.90;;;;;;5020162;28;20179;-83
2022/11/28 08:54:01;;;;;;;15.30;12.70;;;10.20;99.90;;;;;;5002488;28;20225;-80
2022/11/28 08:56:27;;;;;;;15.80;12.50;;;10.20;99.90;;;;;;5003332;28;20600;-85
2022/11/28 08:58:54;;;;;;;14.03;12.53;;;10.20;99.90;;;;;;5009237;28;20264;-84
2022/11/28 09:01:22;;;;;;;14.27;12.20;;;10.10;99.90;;;;;;4997713;28;20182;-84
2022/11/28 09:03:48;;;;;;;13.80;11.70;;;10.20;99.90;;;;;;5017051;28;20178;-80
2022/11/28 09:06:15;;;;;;;15.83;11.97;;;10.20;99.90;;;;;;5017289;28;20545;-82
2022/11/28 09:08:41;;;;;;;12.80;11.37;;;10.20;99.90;;;;;;5000115;28;20166;-79
2022/11/28 09:11:12;;;;;;;13.83;12.03;;;10.20;99.90;;;;;;5028471;28;20205;-81
2022/11/28 09:13:39;;;;;;;14.83;12.30;;;10.20;99.90;;;;;;5021959;28;20257;-80
2022/11/28 09:16:16;;;;;;;14.83;11.13;;;10.20;99.90;;;;;;5005249;28;20175;-81
2022/11/28 09:18:42;;;;;;;13.90;11.67;;;10.20;99.90;;;;;;5005650;28;20170;-79
2022/11/28 09:21:10;;;;;;;15.10;12.00;;;10.40;99.90;;;;;;5021182;28;20660;-80
2022/11/28 09:23:37;;;;;;;16.97;13.17;;;10.40;99.90;;;;;;5018206;28;20505;-79
2022/11/28 09:26:12;;;;;;;17.43;12.13;;;10.40;99.90;;;;;;5001548;28;20603;-79
2022/11/28 09:28:37;;;;;;;16.03;11.97;;;10.40;99.90;;;;;;4986952;28;20178;-79
2022/11/28 09:31:05;;;;;;;15.10;11.57;;;10.20;99.90;;;;;;5019776;28;20247;-80
2022/11/28 09:33:31;;;;;;;14.23;12.50;;;10.40;99.90;;;;;;5020989;28;20173;-82
2022/11/28 09:35:58;;;;;;;16.27;12.10;;;10.40;99.90;;;;;;5002791;28;20178;-80
2022/11/28 09:38:25;;;;;;;17.37;12.13;;;10.50;99.90;;;;;;5002256;28;20177;-80
2022/11/28 09:40:52;;;;;;;15.50;11.90;;;10.40;99.90;;;;;;5023314;28;20200;-80
2022/11/28 09:43:33;;;;;;;16.70;12.10;;;10.40;99.90;;;;;;5018869;28;20181;-81
2022/11/28 09:46:03;;;;;;;14.97;12.17;;;10.40;99.90;;;;;;5020425;28;20229;-82
2022/11/28 09:48:31;;;;;;;15.70;12.53;;;10.50;99.90;;;;;;5000660;28;20265;-79
2022/11/28 09:51:05;;;;;;;17.57;12.60;;;10.50;99.90;;;;;;5018577;28;20167;-80
2022/11/28 09:53:46;;;;;;;19.20;11.70;;;10.50;99.90;;;;;;4998697;28;20170;-82
2022/11/28 09:56:16;;;;;;;13.50;11.97;;;10.50;99.90;;;;;;5015515;28;20248;-81
2022/11/28 09:58:47;;;;;;;18.60;12.83;;;10.60;99.90;;;;;;5012300;28;20171;-82
2022/11/28 10:01:39;;;;;;;16.10;12.67;;;10.60;99.90;;;;;;5005036;28;20178;-81
2022/11/28 10:04:27;;;;;;;16.07;11.67;;;10.70;99.90;;;;;;5014004;28;20201;-81
2022/11/28 10:07:32;;;;;;;16.80;12.00;;;10.80;99.90;;;;;;5014349;28;20166;-80
2022/11/28 10:10:22;;;;;;;17.90;11.63;;;10.70;99.90;;;;;;5013475;28;20552;-81
2022/11/28 10:13:06;;;;;;;18.63;12.93;;;10.80;99.90;;;;;;4995812;28;20194;-79
2022/11/28 10:15:42;;;;;;;16.23;12.13;;;10.80;99.90;;;;;;5013636;28;20170;-80
2022/11/28 10:18:29;;;;;;;16.07;12.40;;;10.80;99.90;;;;;;5018584;28;20223;-84
2022/11/28 10:21:01;;;;;;;19.83;11.83;;;10.80;99.90;;;;;;5000378;28;20174;-84
2022/11/28 10:23:58;;;;;;;17.33;12.00;;;10.90;99.90;;;;;;5001568;28;20170;-83
2022/11/28 10:26:35;;;;;;;16.83;11.67;;;10.90;99.90;;;;;;5018369;28;20214;-85
2022/11/28 10:29:19;;;;;;;16.77;11.90;;;10.90;99.90;;;;;;5016849;28;20168;-86
2022/11/28 10:31:45;;;;;;;14.87;11.73;;;10.80;99.90;;;;;;5014845;28;20194;-85
2022/11/28 10:34:15;;;;;;;15.30;11.23;;;10.70;99.90;;;;;;5014830;28;20173;-84
2022/11/28 10:36:55;;;;;;;16.00;11.10;;;10.70;99.90;;;;;;5016967;28;20167;-84
2022/11/28 10:39:24;;;;;;;19.43;12.40;;;10.70;99.90;;;;;;5000592;28;20178;-85
2022/11/28 10:42:11;;;;;;;16.10;11.43;;;10.60;99.90;;;;;;5002616;28;20179;-83
2022/11/28 10:44:52;;;;;;;15.37;11.60;;;10.80;99.90;;;;;;5019940;28;20198;-83
2022/11/28 10:47:33;;;;;;;18.70;12.07;;;10.80;99.90;;;;;;5048751;23;20178;-85
2022/11/28 10:50:14;;;;;;;15.43;11.13;;;10.80;99.90;;;;;;4997148;28;20222;-85
2022/11/28 10:53:00;;;;;;;13.80;10.63;;;10.90;99.90;;;;;;4990543;28;20272;-84
2022/11/28 10:55:43;;;;;;;16.77;11.53;;;10.90;99.90;;;;;;5015075;28;20152;-81
2022/11/28 10:58:45;;;;;;;20.63;12.07;;;10.90;99.90;;;;;;5014866;28;20155;-84
2022/11/28 11:01:11;;;;;;;16.10;11.67;;;11.00;99.90;;;;;;5004195;28;20168;-82
2022/11/28 11:03:38;;;;;;;19.33;12.77;;;11.10;99.90;;;;;;5021121;28;20230;-83
2022/11/28 11:06:04;;;;;;;18.17;11.80;;;11.00;99.90;;;;;;5018701;28;20250;-85
2022/11/28 11:08:36;;;;;;;17.43;12.23;;;11.00;99.90;;;;;;5014089;28;20171;-82
2022/11/28 11:11:16;;;;;;;19.07;12.63;;;11.00;99.90;;;;;;5014940;28;20186;-82
2022/11/28 11:14:22;;;;;;;16.77;11.77;;;11.00;99.90;;;;;;5001815;28;20197;-84
2022/11/28 11:16:49;;;;;;;16.80;12.40;;;10.90;99.90;;;;;;4961229;28;20210;-80
2022/11/28 11:19:38;;;;;;;18.60;12.60;;;11.00;99.90;;;;;;5000827;28;20179;-83
2022/11/28 11:22:20;;;;;;;19.10;12.27;;;11.00;99.90;;;;;;5000850;28;20185;-86
2022/11/28 11:25:11;;;;;;;22.23;12.30;;;11.10;99.90;;;;;;4999857;28;20197;-84
2022/11/28 11:27:48;;;;;;;19.23;12.00;;;11.10;99.90;;;;;;4991629;28;20218;-85
2022/11/28 11:30:26;;;;;;;19.47;13.13;;;11.10;99.90;;;;;;4999453;28;20194;-85
2022/11/28 11:32:54;;;;;;;21.50;14.33;;;11.00;99.90;;;;;;4982279;28;20225;-85
2022/11/28 11:35:24;;;;;;;17.53;11.87;;;11.10;99.90;;;;;;5003012;28;20194;-84
2022/11/28 11:37:51;;;;;;;21.63;12.17;;;11.10;99.90;;;;;;4981618;28;20210;-81
2022/11/28 11:40:25;;;;;;;19.03;13.13;;;11.20;99.90;;;;;;4998855;28;20577;-85
2022/11/28 11:42:57;;;;;;;23.93;13.23;;;11.20;99.90;;;;;;4983079;28;20514;-86
2022/11/28 11:45:29;;;;;;;22.97;13.23;;;11.30;99.90;;;;;;5002677;28;20271;-83
2022/11/28 11:47:55;;;;;;;21.83;12.63;;;11.30;99.90;;;;;;4987618;28;20522;-83
2022/11/28 11:50:25;;;;;;;23.67;13.80;;;11.20;99.90;;;;;;5001347;28;20167;-80
2022/11/28 11:53:13;;;;;;;20.83;12.03;;;11.10;99.90;;;;;;5001729;28;20194;-83
2022/11/28 11:55:52;;;;;;;20.10;12.73;;;11.00;99.90;;;;;;5002108;28;20579;-84
2022/11/28 11:58:50;;;;;;;20.37;13.63;;;11.10;99.90;;;;;;5000788;28;20237;-81
2022/11/28 12:01:18;;;;;;;24.13;13.70;;;11.10;99.90;;;;;;4963831;28;20183;-85
2022/11/28 12:03:57;;;;;;;20.10;12.80;;;11.10;99.90;;;;;;4998042;28;20181;-79
2022/11/28 12:06:28;;;;;;;19.37;12.43;;;11.20;99.90;;;;;;4997201;28;20174;-80
2022/11/28 12:09:11;;;;;;;24.03;12.87;;;11.20;99.90;;;;;;4998961;28;20163;-83
2022/11/28 12:11:48;;;;;;;21.53;13.20;;;11.10;99.90;;;;;;4996580;28;20233;-81
2022/11/28 12:14:32;;;;;;;23.23;12.87;;;11.20;99.90;;;;;;5004018;28;20692;-85
2022/11/28 12:17:25;;;;;;;20.23;12.00;;;11.30;99.90;;;;;;5014393;28;20189;-81
2022/11/28 12:20:19;;;;;;;21.97;13.40;;;11.10;99.90;;;;;;5001822;28;20182;-80
2022/11/28 12:23:13;;;;;;;22.27;13.60;;;11.20;99.90;;;;;;5014161;28;20182;-83
2022/11/28 12:25:50;;;;;;;20.17;13.07;;;11.50;99.90;;;;;;5018140;28;20206;-83
2022/11/28 12:28:31;;;;;;;20.87;13.27;;;11.50;99.90;;;;;;4996221;28;20178;-80
2022/11/28 12:31:10;;;;;;;21.53;13.33;;;11.50;99.90;;;;;;5018524;28;20206;-80
2022/11/28 12:33:57;;;;;;;19.30;13.23;;;11.50;99.90;;;;;;4998387;28;20154;-80
2022/11/28 12:36:33;;;;;;;25.30;13.73;;;11.40;99.90;;;;;;5007229;28;20171;-81
2022/11/28 12:39:20;;;;;;;23.30;15.63;;;11.30;99.90;;;;;;5006432;28;20163;-82
2022/11/28 12:42:22;;;;;;;20.17;12.67;;;11.40;99.90;;;;;;5001322;28;20159;-81
2022/11/28 12:48:44;;;;;;;20.10;13.23;;;11.40;99.90;;;;;;4998597;28;20190;-82
2022/11/28 12:52:03;;;;;;;21.10;13.10;;;11.50;99.90;;;;;;4995964;28;20172;-81
2022/11/28 12:55:05;;;;;;;18.90;13.27;;;11.60;99.90;;;;;;4999238;28;20175;-82
2022/11/28 12:58:03;;;;;;;19.20;13.57;;;11.40;99.90;;;;;;4970748;28;20214;-80
2022/11/28 13:00:30;;;;;;;18.77;11.50;;;11.50;99.90;;;;;;4994926;28;20201;-80
2022/11/28 13:03:04;;;;;;;18.67;12.87;;;11.40;99.90;;;;;;4994991;28;20557;-80
2022/11/28 13:05:52;;;;;;;20.13;11.87;;;11.40;99.90;;;;;;4995030;28;20236;-80
2022/11/28 13:08:33;;;;;;;22.20;13.23;;;11.30;99.90;;;;;;4977434;28;20234;-80
2022/11/28 13:11:16;;;;;;;22.27;14.30;;;11.20;99.90;;;;;;4994701;28;20225;-80
2022/11/28 13:14:12;;;;;;;21.87;12.63;;;11.10;99.90;;;;;;4994648;28;20627;-81
2022/11/28 13:16:51;;;;;;;21.23;12.67;;;11.20;99.90;;;;;;4978228;28;20194;-85
2022/11/28 13:19:32;;;;;;;19.53;12.57;;;11.20;99.90;;;;;;4981002;28;20643;-85
2022/11/28 13:22:13;;;;;;;23.43;13.17;;;11.30;99.90;;;;;;4999012;28;20171;-85
2022/11/28 13:24:51;;;;;;;22.87;14.00;;;11.40;99.90;;;;;;5006487;28;20206;-83